sensor_id;sensor_type;location;lat;lon;timestamp;pressure;altitude;pressure_sealevel;temperature;humidity
72438;BME280;60444;43.534;-5.674;2022-11-15T00:01:31;100767.63;;;15.51;93.09
72438;BME280;60444;43.534;-5.674;2022-11-15T00:03:56;100763.47;;;15.58;92.95
72438;BME280;60444;43.534;-5.674;2022-11-15T00:06:22;100751.69;;;15.58;93.05
72438;BME280;60444;43.534;-5.674;2022-11-15T00:08:47;100748.66;;;15.63;92.89
72438;BME280;60444;43.534;-5.674;2022-11-15T00:11:13;100726.19;;;15.59;93.21
72438;BME280;60444;43.534;-5.674;2022-11-15T00:13:39;100738.41;;;15.66;93.27
72438;BME280;60444;43.534;-5.674;2022-11-15T00:16:05;100729.22;;;15.67;93.02
72438;BME280;60444;43.534;-5.674;2022-11-15T00:18:30;100719.84;;;15.58;93.23
72438;BME280;60444;43.534;-5.674;2022-11-15T00:21:03;100712.56;;;15.59;92.82
72438;BME280;60444;43.534;-5.674;2022-11-15T00:23:29;100689.75;;;15.47;93.13
72438;BME280;60444;43.534;-5.674;2022-11-15T00:25:56;100717.59;;;15.65;93.36
72438;BME280;60444;43.534;-5.674;2022-11-15T00:28:22;100685.06;;;15.49;92.96
72438;BME280;60444;43.534;-5.674;2022-11-15T00:30:48;100707.63;;;15.64;93.47
72438;BME280;60444;43.534;-5.674;2022-11-15T00:33:13;100695.00;;;15.63;93.51
72438;BME280;60444;43.534;-5.674;2022-11-15T00:35:39;100689.22;;;15.55;93.36
72438;BME280;60444;43.534;-5.674;2022-11-15T00:38:04;100682.56;;;15.59;93.47
72438;BME280;60444;43.534;-5.674;2022-11-15T00:40:30;100675.34;;;15.58;93.45
72438;BME280;60444;43.534;-5.674;2022-11-15T00:42:56;100654.84;;;15.52;93.75
72438;BME280;60444;43.534;-5.674;2022-11-15T00:45:21;100674.50;;;15.57;93.59
72438;BME280;60444;43.534;-5.674;2022-11-15T00:47:47;100663.72;;;15.56;93.66
72438;BME280;60444;43.534;-5.674;2022-11-15T00:50:12;100640.69;;;15.47;93.66
72438;BME280;60444;43.534;-5.674;2022-11-15T00:52:38;100650.28;;;15.53;93.47
72438;BME280;60444;43.534;-5.674;2022-11-15T00:55:17;100660.75;;;15.59;93.68
72438;BME280;60444;43.534;-5.674;2022-11-15T00:57:43;100655.59;;;15.54;93.61
72438;BME280;60444;43.534;-5.674;2022-11-15T01:00:09;100656.38;;;15.56;93.44
72438;BME280;60444;43.534;-5.674;2022-11-15T01:02:35;100664.56;;;15.56;93.39
72438;BME280;60444;43.534;-5.674;2022-11-15T01:05:01;100645.47;;;15.44;93.19
72438;BME280;60444;43.534;-5.674;2022-11-15T01:07:28;100650.94;;;15.44;93.70
72438;BME280;60444;43.534;-5.674;2022-11-15T01:09:53;100653.13;;;15.51;93.63
72438;BME280;60444;43.534;-5.674;2022-11-15T01:12:19;100645.28;;;15.47;93.77
72438;BME280;60444;43.534;-5.674;2022-11-15T01:14:44;100668.16;;;15.57;93.90
72438;BME280;60444;43.534;-5.674;2022-11-15T01:17:10;100668.41;;;15.54;93.66
72438;BME280;60444;43.534;-5.674;2022-11-15T01:19:35;100660.97;;;15.56;93.88
72438;BME280;60444;43.534;-5.674;2022-11-15T01:22:01;100660.97;;;15.56;93.95
72438;BME280;60444;43.534;-5.674;2022-11-15T01:24:26;100647.44;;;15.54;93.76
72438;BME280;60444;43.534;-5.674;2022-11-15T01:26:52;100642.84;;;15.55;93.68
72438;BME280;60444;43.534;-5.674;2022-11-15T01:29:17;100629.13;;;15.44;93.63
72438;BME280;60444;43.534;-5.674;2022-11-15T01:31:43;100660.09;;;15.55;93.57
72438;BME280;60444;43.534;-5.674;2022-11-15T01:34:08;100649.63;;;15.49;93.75
72438;BME280;60444;43.534;-5.674;2022-11-15T01:36:34;100644.81;;;15.53;93.43
72438;BME280;60444;43.534;-5.674;2022-11-15T01:38:59;100635.09;;;15.49;93.61
72438;BME280;60444;43.534;-5.674;2022-11-15T01:41:30;100629.34;;;15.41;93.60
72438;BME280;60444;43.534;-5.674;2022-11-15T01:44:28;100640.38;;;15.52;93.81
72438;BME280;60444;43.534;-5.674;2022-11-15T01:46:46;100620.28;;;15.53;93.50
72438;BME280;60444;43.534;-5.674;2022-11-15T01:49:17;100623.34;;;15.61;93.30
72438;BME280;60444;43.534;-5.674;2022-11-15T01:51:43;100608.41;;;15.54;93.62
72438;BME280;60444;43.534;-5.674;2022-11-15T01:54:14;100617.25;;;15.57;93.45
72438;BME280;60444;43.534;-5.674;2022-11-15T01:56:51;100605.44;;;15.57;93.56
72438;BME280;60444;43.534;-5.674;2022-11-15T01:59:18;100593.78;;;15.55;93.68
72438;BME280;60444;43.534;-5.674;2022-11-15T02:01:44;100586.38;;;15.57;93.23
72438;BME280;60444;43.534;-5.674;2022-11-15T02:04:17;100575.47;;;15.57;93.58
72438;BME280;60444;43.534;-5.674;2022-11-15T02:06:46;100574.69;;;15.55;93.78
72438;BME280;60444;43.534;-5.674;2022-11-15T02:09:13;100554.31;;;15.48;93.87
72438;BME280;60444;43.534;-5.674;2022-11-15T02:11:39;100559.78;;;15.48;93.37
72438;BME280;60444;43.534;-5.674;2022-11-15T02:14:07;100555.53;;;15.19;93.60
72438;BME280;60444;43.534;-5.674;2022-11-15T02:25:40;100554.97;;;15.26;95.46
72438;BME280;60444;43.534;-5.674;2022-11-15T02:28:20;100531.66;;;15.22;95.03
72438;BME280;60444;43.534;-5.674;2022-11-15T02:33:52;100538.19;;;15.32;95.30
72438;BME280;60444;43.534;-5.674;2022-11-15T02:39:13;100530.03;;;15.20;95.16
72438;BME280;60444;43.534;-5.674;2022-11-15T02:41:56;100521.84;;;15.32;94.90
72438;BME280;60444;43.534;-5.674;2022-11-15T02:44:39;100521.63;;;15.35;95.11
72438;BME280;60444;43.534;-5.674;2022-11-15T02:47:11;100502.84;;;15.31;94.72
72438;BME280;60444;43.534;-5.674;2022-11-15T02:49:46;100508.97;;;15.34;94.82
72438;BME280;60444;43.534;-5.674;2022-11-15T02:52:20;100524.69;;;15.43;95.11
72438;BME280;60444;43.534;-5.674;2022-11-15T02:54:57;100532.63;;;15.46;94.48
72438;BME280;60444;43.534;-5.674;2022-11-15T02:57:36;100515.28;;;15.47;94.38
72438;BME280;60444;43.534;-5.674;2022-11-15T03:00:10;100496.56;;;15.43;94.11
72438;BME280;60444;43.534;-5.674;2022-11-15T03:10:42;100464.38;;;15.48;94.75
72438;BME280;60444;43.534;-5.674;2022-11-15T03:13:54;100432.31;;;15.39;94.46
72438;BME280;60444;43.534;-5.674;2022-11-15T03:16:43;100450.50;;;15.51;94.50
72438;BME280;60444;43.534;-5.674;2022-11-15T03:21:57;100425.81;;;15.41;94.68
72438;BME280;60444;43.534;-5.674;2022-11-15T03:24:26;100416.50;;;15.44;94.77
72438;BME280;60444;43.534;-5.674;2022-11-15T03:26:55;100433.63;;;15.46;95.87
72438;BME280;60444;43.534;-5.674;2022-11-15T03:29:28;100422.97;;;15.43;95.02
72438;BME280;60444;43.534;-5.674;2022-11-15T03:32:03;100411.38;;;15.39;96.18
72438;BME280;60444;43.534;-5.674;2022-11-15T03:34:37;100404.75;;;15.43;95.95
72438;BME280;60444;43.534;-5.674;2022-11-15T03:37:05;100387.94;;;15.37;96.07
72438;BME280;60444;43.534;-5.674;2022-11-15T03:39:31;100390.00;;;15.46;95.96
72438;BME280;60444;43.534;-5.674;2022-11-15T03:47:25;100360.28;;;15.43;95.58
72438;BME280;60444;43.534;-5.674;2022-11-15T03:49:56;100383.69;;;15.45;95.58
72438;BME280;60444;43.534;-5.674;2022-11-15T03:52:23;100387.53;;;15.43;95.63
72438;BME280;60444;43.534;-5.674;2022-11-15T03:54:55;100389.25;;;15.44;95.60
72438;BME280;60444;43.534;-5.674;2022-11-15T03:57:21;100383.81;;;15.44;95.91
72438;BME280;60444;43.534;-5.674;2022-11-15T03:59:46;100377.72;;;15.40;95.47
72438;BME280;60444;43.534;-5.674;2022-11-15T04:02:12;100379.53;;;15.40;95.34
72438;BME280;60444;43.534;-5.674;2022-11-15T04:04:38;100359.72;;;15.38;95.21
72438;BME280;60444;43.534;-5.674;2022-11-15T04:07:04;100369.09;;;15.46;95.55
72438;BME280;60444;43.534;-5.674;2022-11-15T04:09:30;100367.44;;;15.44;96.42
72438;BME280;60444;43.534;-5.674;2022-11-15T04:11:55;100341.44;;;15.27;98.01
72438;BME280;60444;43.534;-5.674;2022-11-15T04:14:21;100349.97;;;15.23;99.60
72438;BME280;60444;43.534;-5.674;2022-11-15T04:16:46;100352.81;;;15.21;99.56
72438;BME280;60444;43.534;-5.674;2022-11-15T04:19:12;100343.31;;;15.27;98.31
72438;BME280;60444;43.534;-5.674;2022-11-15T04:21:56;100339.34;;;15.31;97.80
72438;BME280;60444;43.534;-5.674;2022-11-15T04:24:39;100345.66;;;15.31;97.58
72438;BME280;60444;43.534;-5.674;2022-11-15T04:27:05;100334.38;;;15.25;96.51
72438;BME280;60444;43.534;-5.674;2022-11-15T04:29:30;100317.53;;;15.20;99.30
72438;BME280;60444;43.534;-5.674;2022-11-15T04:32:06;100330.84;;;15.35;97.71
72438;BME280;60444;43.534;-5.674;2022-11-15T04:34:32;100292.28;;;15.29;98.62
72438;BME280;60444;43.534;-5.674;2022-11-15T04:37:00;100264.81;;;15.32;96.75
72438;BME280;60444;43.534;-5.674;2022-11-15T04:39:42;100254.16;;;15.29;96.48
72438;BME280;60444;43.534;-5.674;2022-11-15T04:42:08;100266.00;;;15.28;99.20
72438;BME280;60444;43.534;-5.674;2022-11-15T04:44:34;100254.38;;;15.26;98.51
72438;BME280;60444;43.534;-5.674;2022-11-15T04:47:00;100245.22;;;15.27;97.41
72438;BME280;60444;43.534;-5.674;2022-11-15T04:49:26;100230.03;;;15.12;100.00
72438;BME280;60444;43.534;-5.674;2022-11-15T04:51:51;100228.06;;;15.14;100.00
72438;BME280;60444;43.534;-5.674;2022-11-15T04:54:17;100248.91;;;15.26;98.02
72438;BME280;60444;43.534;-5.674;2022-11-15T04:56:42;100250.88;;;15.24;98.94
72438;BME280;60444;43.534;-5.674;2022-11-15T04:59:08;100232.47;;;15.04;99.84
72438;BME280;60444;43.534;-5.674;2022-11-15T05:01:33;100232.97;;;14.98;98.03
72438;BME280;60444;43.534;-5.674;2022-11-15T05:03:59;100236.66;;;14.97;98.34
72438;BME280;60444;43.534;-5.674;2022-11-15T05:06:43;100249.81;;;15.03;99.39
72438;BME280;60444;43.534;-5.674;2022-11-15T05:09:08;100230.75;;;15.03;99.52
72438;BME280;60444;43.534;-5.674;2022-11-15T05:11:34;100229.41;;;15.08;99.56
72438;BME280;60444;43.534;-5.674;2022-11-15T05:13:59;100211.97;;;15.11;98.35
72438;BME280;60444;43.534;-5.674;2022-11-15T05:16:25;100209.50;;;15.19;97.89
72438;BME280;60444;43.534;-5.674;2022-11-15T05:18:51;100211.38;;;15.29;97.41
72438;BME280;60444;43.534;-5.674;2022-11-15T05:21:17;100188.59;;;15.19;96.53
72438;BME280;60444;43.534;-5.674;2022-11-15T05:23:43;100202.88;;;15.34;95.93
72438;BME280;60444;43.534;-5.674;2022-11-15T05:26:09;100212.34;;;15.41;95.91
72438;BME280;60444;43.534;-5.674;2022-11-15T05:28:35;100210.38;;;15.43;95.94
72438;BME280;60444;43.534;-5.674;2022-11-15T05:33:32;100215.84;;;15.54;94.76
72438;BME280;60444;43.534;-5.674;2022-11-15T05:36:04;100213.88;;;15.56;95.34
72438;BME280;60444;43.534;-5.674;2022-11-15T05:38:31;100219.06;;;15.59;94.70
72438;BME280;60444;43.534;-5.674;2022-11-15T05:40:56;100210.63;;;15.62;93.84
72438;BME280;60444;43.534;-5.674;2022-11-15T05:43:23;100219.69;;;15.63;94.97
72438;BME280;60444;43.534;-5.674;2022-11-15T05:45:49;100205.69;;;15.56;95.45
72438;BME280;60444;43.534;-5.674;2022-11-15T05:48:15;100210.41;;;15.65;95.37
72438;BME280;60444;43.534;-5.674;2022-11-15T05:50:43;100223.66;;;15.70;95.89
72438;BME280;60444;43.534;-5.674;2022-11-15T05:53:11;100218.22;;;15.70;94.83
72438;BME280;60444;43.534;-5.674;2022-11-15T05:55:38;100213.75;;;15.69;95.04
72438;BME280;60444;43.534;-5.674;2022-11-15T05:58:05;100209.16;;;15.69;94.63
72438;BME280;60444;43.534;-5.674;2022-11-15T06:00:30;100214.38;;;15.72;94.21
72438;BME280;60444;43.534;-5.674;2022-11-15T06:02:56;100201.47;;;15.63;94.94
72438;BME280;60444;43.534;-5.674;2022-11-15T06:05:21;100209.75;;;15.62;95.83
72438;BME280;60444;43.534;-5.674;2022-11-15T06:07:47;100205.28;;;15.49;94.73
72438;BME280;60444;43.534;-5.674;2022-11-15T06:10:12;100218.66;;;15.52;94.10
72438;BME280;60444;43.534;-5.674;2022-11-15T06:12:38;100209.63;;;15.41;95.01
72438;BME280;60444;43.534;-5.674;2022-11-15T06:15:04;100213.09;;;15.43;93.92
72438;BME280;60444;43.534;-5.674;2022-11-15T06:17:29;100195.19;;;15.39;93.77
72438;BME280;60444;43.534;-5.674;2022-11-15T06:19:55;100203.78;;;15.45;95.10
72438;BME280;60444;43.534;-5.674;2022-11-15T06:22:20;100205.03;;;15.52;95.98
72438;BME280;60444;43.534;-5.674;2022-11-15T06:24:45;100196.47;;;15.46;91.35
72438;BME280;60444;43.534;-5.674;2022-11-15T06:27:12;100210.13;;;15.57;94.65
72438;BME280;60444;43.534;-5.674;2022-11-15T06:29:37;100221.66;;;15.61;97.37
72438;BME280;60444;43.534;-5.674;2022-11-15T06:32:03;100228.47;;;15.55;96.39
72438;BME280;60444;43.534;-5.674;2022-11-15T06:34:28;100213.00;;;15.55;95.95
72438;BME280;60444;43.534;-5.674;2022-11-15T06:36:54;100212.13;;;15.55;95.41
72438;BME280;60444;43.534;-5.674;2022-11-15T06:39:19;100217.31;;;15.58;96.06
72438;BME280;60444;43.534;-5.674;2022-11-15T06:41:45;100224.53;;;15.59;98.60
72438;BME280;60444;43.534;-5.674;2022-11-15T06:44:11;100238.16;;;15.59;97.15
72438;BME280;60444;43.534;-5.674;2022-11-15T06:46:36;100232.91;;;15.45;98.74
72438;BME280;60444;43.534;-5.674;2022-11-15T06:49:02;100281.16;;;15.55;95.39
72438;BME280;60444;43.534;-5.674;2022-11-15T06:51:27;100291.16;;;15.55;92.90
72438;BME280;60444;43.534;-5.674;2022-11-15T06:53:53;100334.97;;;15.65;91.71
72438;BME280;60444;43.534;-5.674;2022-11-15T06:56:19;100338.03;;;15.60;94.59
72438;BME280;60444;43.534;-5.674;2022-11-15T06:58:44;100353.56;;;15.71;93.64
72438;BME280;60444;43.534;-5.674;2022-11-15T07:01:11;100327.66;;;15.65;95.33
72438;BME280;60444;43.534;-5.674;2022-11-15T07:03:41;100370.31;;;15.77;95.29
72438;BME280;60444;43.534;-5.674;2022-11-15T07:06:08;100376.28;;;15.82;94.61
72438;BME280;60444;43.534;-5.674;2022-11-15T07:08:34;100384.34;;;15.84;95.09
72438;BME280;60444;43.534;-5.674;2022-11-15T07:11:05;100364.41;;;15.83;95.41
72438;BME280;60444;43.534;-5.674;2022-11-15T07:13:32;100362.66;;;15.82;94.97
72438;BME280;60444;43.534;-5.674;2022-11-15T07:16:02;100359.41;;;15.77;94.88
72438;BME280;60444;43.534;-5.674;2022-11-15T07:18:28;100442.44;;;15.73;97.57
72438;BME280;60444;43.534;-5.674;2022-11-15T07:20:53;100464.25;;;15.73;99.28
72438;BME280;60444;43.534;-5.674;2022-11-15T07:23:19;100472.06;;;15.67;100.00
72438;BME280;60444;43.534;-5.674;2022-11-15T07:25:44;100500.84;;;15.58;100.00
72438;BME280;60444;43.534;-5.674;2022-11-15T07:28:10;100508.97;;;15.47;100.00
72438;BME280;60444;43.534;-5.674;2022-11-15T07:30:35;100520.22;;;15.30;100.00
72438;BME280;60444;43.534;-5.674;2022-11-15T07:33:01;100551.38;;;15.26;100.00
72438;BME280;60444;43.534;-5.674;2022-11-15T07:35:30;100547.69;;;15.14;100.00
72438;BME280;60444;43.534;-5.674;2022-11-15T07:37:57;100530.16;;;14.93;100.00
72438;BME280;60444;43.534;-5.674;2022-11-15T07:40:24;100564.59;;;14.94;100.00
72438;BME280;60444;43.534;-5.674;2022-11-15T07:42:50;100577.75;;;14.88;100.00
72438;BME280;60444;43.534;-5.674;2022-11-15T07:45:23;100604.34;;;14.84;100.00
72438;BME280;60444;43.534;-5.674;2022-11-15T07:47:51;100548.91;;;14.73;100.00
72438;BME280;60444;43.534;-5.674;2022-11-15T07:50:17;100589.75;;;14.73;100.00
72438;BME280;60444;43.534;-5.674;2022-11-15T07:52:43;100595.34;;;14.57;100.00
72438;BME280;60444;43.534;-5.674;2022-11-15T07:55:09;100620.41;;;14.49;100.00
72438;BME280;60444;43.534;-5.674;2022-11-15T07:57:35;100638.34;;;14.52;100.00
72438;BME280;60444;43.534;-5.674;2022-11-15T08:00:00;100609.25;;;14.40;100.00
72438;BME280;60444;43.534;-5.674;2022-11-15T08:02:26;100633.75;;;14.40;100.00
72438;BME280;60444;43.534;-5.674;2022-11-15T08:04:51;100643.34;;;14.45;100.00
72438;BME280;60444;43.534;-5.674;2022-11-15T08:07:17;100624.16;;;14.34;100.00
72438;BME280;60444;43.534;-5.674;2022-11-15T08:09:42;100642.34;;;14.46;100.00
72438;BME280;60444;43.534;-5.674;2022-11-15T08:12:08;100619.66;;;14.33;100.00
72438;BME280;60444;43.534;-5.674;2022-11-15T08:14:35;100629.75;;;14.45;100.00
72438;BME280;60444;43.534;-5.674;2022-11-15T08:17:00;100618.09;;;14.43;100.00
72438;BME280;60444;43.534;-5.674;2022-11-15T08:19:26;100613.94;;;14.38;100.00
72438;BME280;60444;43.534;-5.674;2022-11-15T08:21:51;100603.59;;;14.43;100.00
72438;BME280;60444;43.534;-5.674;2022-11-15T08:24:17;100599.81;;;14.45;100.00
72438;BME280;60444;43.534;-5.674;2022-11-15T08:26:42;100605.34;;;14.44;100.00
72438;BME280;60444;43.534;-5.674;2022-11-15T08:29:08;100619.19;;;14.53;100.00
72438;BME280;60444;43.534;-5.674;2022-11-15T08:31:35;100611.75;;;14.43;100.00
72438;BME280;60444;43.534;-5.674;2022-11-15T08:34:02;100629.38;;;14.37;100.00
72438;BME280;60444;43.534;-5.674;2022-11-15T08:36:27;100609.03;;;14.43;100.00
72438;BME280;60444;43.534;-5.674;2022-11-15T08:38:53;100613.38;;;14.33;100.00
72438;BME280;60444;43.534;-5.674;2022-11-15T08:41:28;100609.25;;;14.40;100.00
72438;BME280;60444;43.534;-5.674;2022-11-15T08:43:55;100597.44;;;14.27;100.00
72438;BME280;60444;43.534;-5.674;2022-11-15T08:46:20;100601.59;;;14.32;100.00
72438;BME280;60444;43.534;-5.674;2022-11-15T08:48:46;100601.72;;;14.31;100.00
72438;BME280;60444;43.534;-5.674;2022-11-15T08:51:12;100603.66;;;14.29;100.00
72438;BME280;60444;43.534;-5.674;2022-11-15T08:53:37;100584.22;;;14.21;100.00
72438;BME280;60444;43.534;-5.674;2022-11-15T08:56:07;100597.53;;;14.25;100.00
72438;BME280;60444;43.534;-5.674;2022-11-15T08:58:33;100599.69;;;14.20;100.00
72438;BME280;60444;43.534;-5.674;2022-11-15T09:00:58;100585.50;;;14.15;100.00
72438;BME280;60444;43.534;-5.674;2022-11-15T09:03:24;100586.81;;;14.10;100.00
72438;BME280;60444;43.534;-5.674;2022-11-15T09:05:54;100595.72;;;14.12;100.00
72438;BME280;60444;43.534;-5.674;2022-11-15T09:08:20;100589.63;;;14.08;100.00
72438;BME280;60444;43.534;-5.674;2022-11-15T09:10:45;100627.84;;;14.19;100.00
72438;BME280;60444;43.534;-5.674;2022-11-15T09:13:11;100607.81;;;14.08;100.00
72438;BME280;60444;43.534;-5.674;2022-11-15T09:15:37;100617.28;;;14.15;100.00
72438;BME280;60444;43.534;-5.674;2022-11-15T09:18:02;100626.91;;;14.20;100.00
72438;BME280;60444;43.534;-5.674;2022-11-15T09:20:28;100639.16;;;14.27;100.00
72438;BME280;60444;43.534;-5.674;2022-11-15T09:22:53;100644.66;;;14.26;100.00
72438;BME280;60444;43.534;-5.674;2022-11-15T09:25:19;100648.19;;;14.28;100.00
72438;BME280;60444;43.534;-5.674;2022-11-15T09:27:44;100651.75;;;14.28;100.00
72438;BME280;60444;43.534;-5.674;2022-11-15T09:30:10;100642.22;;;14.21;100.00
72438;BME280;60444;43.534;-5.674;2022-11-15T09:32:36;100660.69;;;14.30;100.00
72438;BME280;60444;43.534;-5.674;2022-11-15T09:35:01;100652.75;;;14.27;100.00
72438;BME280;60444;43.534;-5.674;2022-11-15T09:37:28;100661.19;;;14.37;100.00
72438;BME280;60444;43.534;-5.674;2022-11-15T09:39:53;100645.16;;;14.32;100.00
72438;BME280;60444;43.534;-5.674;2022-11-15T09:45:29;100680.47;;;14.46;100.00
72438;BME280;60444;43.534;-5.674;2022-11-15T09:50:54;100645.03;;;14.34;100.00
72438;BME280;60444;43.534;-5.674;2022-11-15T09:53:49;100651.91;;;14.39;100.00
72438;BME280;60444;43.534;-5.674;2022-11-15T09:56:22;100664.56;;;14.40;100.00
72438;BME280;60444;43.534;-5.674;2022-11-15T10:03:59;100672.41;;;14.45;100.00
72438;BME280;60444;43.534;-5.674;2022-11-15T10:06:26;100680.56;;;14.45;100.00
72438;BME280;60444;43.534;-5.674;2022-11-15T10:09:02;100679.28;;;14.50;100.00
72438;BME280;60444;43.534;-5.674;2022-11-15T10:11:31;100661.53;;;14.45;100.00
72438;BME280;60444;43.534;-5.674;2022-11-15T10:14:16;100681.16;;;14.63;100.00
72438;BME280;60444;43.534;-5.674;2022-11-15T10:24:47;100663.25;;;14.73;100.00
72438;BME280;60444;43.534;-5.674;2022-11-15T10:27:16;100673.84;;;14.90;100.00
72438;BME280;60444;43.534;-5.674;2022-11-15T10:29:49;100653.69;;;14.80;100.00
72438;BME280;60444;43.534;-5.674;2022-11-15T10:32:17;100675.94;;;14.99;100.00
72438;BME280;60444;43.534;-5.674;2022-11-15T10:34:44;100673.09;;;15.00;100.00
72438;BME280;60444;43.534;-5.674;2022-11-15T10:37:10;100650.88;;;14.94;100.00
72438;BME280;60444;43.534;-5.674;2022-11-15T10:39:35;100660.47;;;14.99;100.00
72438;BME280;60444;43.534;-5.674;2022-11-15T10:42:25;100682.06;;;15.15;100.00
72438;BME280;60444;43.534;-5.674;2022-11-15T10:44:50;100657.53;;;15.15;100.00
72438;BME280;60444;43.534;-5.674;2022-11-15T10:47:32;100671.28;;;15.26;100.00
72438;BME280;60444;43.534;-5.674;2022-11-15T10:50:11;100676.41;;;15.30;100.00
72438;BME280;60444;43.534;-5.674;2022-11-15T10:52:49;100645.22;;;15.22;100.00
72438;BME280;60444;43.534;-5.674;2022-11-15T10:57:50;100668.06;;;15.46;100.00
72438;BME280;60444;43.534;-5.674;2022-11-15T11:03:02;100659.97;;;15.57;100.00
72438;BME280;60444;43.534;-5.674;2022-11-15T11:05:39;100639.59;;;15.50;100.00
72438;BME280;60444;43.534;-5.674;2022-11-15T11:10:32;100629.09;;;15.56;100.00
72438;BME280;60444;43.534;-5.674;2022-11-15T11:13:22;100643.38;;;15.73;100.00
72438;BME280;60444;43.534;-5.674;2022-11-15T11:15:53;100638.78;;;15.73;100.00
72438;BME280;60444;43.534;-5.674;2022-11-15T11:18:37;100621.91;;;15.68;100.00
72438;BME280;60444;43.534;-5.674;2022-11-15T11:21:09;100622.31;;;15.75;100.00
72438;BME280;60444;43.534;-5.674;2022-11-15T11:23:56;100587.91;;;15.61;100.00
72438;BME280;60444;43.534;-5.674;2022-11-15T11:26:55;100613.56;;;15.82;100.00
72438;BME280;60444;43.534;-5.674;2022-11-15T11:29:39;100593.97;;;15.77;100.00
72438;BME280;60444;43.534;-5.674;2022-11-15T11:32:26;100595.69;;;15.78;100.00
72438;BME280;60444;43.534;-5.674;2022-11-15T11:35:08;100590.56;;;15.86;100.00
72438;BME280;60444;43.534;-5.674;2022-11-15T11:37:45;100566.44;;;15.80;100.00
72438;BME280;60444;43.534;-5.674;2022-11-15T11:40:30;100572.75;;;15.93;100.00
72438;BME280;60444;43.534;-5.674;2022-11-15T11:51:34;100540.47;;;16.11;95.95
72438;BME280;60444;43.534;-5.674;2022-11-15T11:56:44;100525.72;;;16.13;94.99
72438;BME280;60444;43.534;-5.674;2022-11-15T11:59:36;100520.66;;;16.20;95.42
72438;BME280;60444;43.534;-5.674;2022-11-15T12:02:31;100530.66;;;16.32;97.61
72438;BME280;60444;43.534;-5.674;2022-11-15T12:05:22;100519.47;;;16.35;89.52
72438;BME280;60444;43.534;-5.674;2022-11-15T12:07:54;100507.31;;;16.28;90.06
72438;BME280;60444;43.534;-5.674;2022-11-15T12:10:32;100514.66;;;16.38;93.77
72438;BME280;60444;43.534;-5.674;2022-11-15T12:13:03;100523.09;;;16.46;95.71
72438;BME280;60444;43.534;-5.674;2022-11-15T12:15:33;100510.03;;;16.51;84.39
72438;BME280;60444;43.534;-5.674;2022-11-15T12:18:01;100499.94;;;16.52;92.91
72438;BME280;60444;43.534;-5.674;2022-11-15T12:20:30;100513.25;;;16.56;87.13
72438;BME280;60444;43.534;-5.674;2022-11-15T12:30:45;100524.09;;;16.69;83.83
72438;BME280;60444;43.534;-5.674;2022-11-15T12:36:05;100516.16;;;16.66;93.43
72438;BME280;60444;43.534;-5.674;2022-11-15T12:39:07;100519.00;;;16.76;84.79
72438;BME280;60444;43.534;-5.674;2022-11-15T12:41:36;100505.34;;;16.76;81.11
72438;BME280;60444;43.534;-5.674;2022-11-15T12:44:03;100515.53;;;16.85;83.54
72438;BME280;60444;43.534;-5.674;2022-11-15T13:02:21;100492.34;;;17.23;80.95
72438;BME280;60444;43.534;-5.674;2022-11-15T13:04:48;100480.03;;;17.18;79.15
72438;BME280;60444;43.534;-5.674;2022-11-15T13:17:45;100479.56;;;17.13;82.64
72438;BME280;60444;43.534;-5.674;2022-11-15T13:20:17;100497.53;;;17.26;80.92
72438;BME280;60444;43.534;-5.674;2022-11-15T13:25:53;100480.91;;;17.18;80.15
72438;BME280;60444;43.534;-5.674;2022-11-15T13:30:53;100485.72;;;17.26;79.94
72438;BME280;60444;43.534;-5.674;2022-11-15T13:35:54;100481.88;;;17.39;78.52
72438;BME280;60444;43.534;-5.674;2022-11-15T13:38:34;100482.03;;;17.38;81.29
72438;BME280;60444;43.534;-5.674;2022-11-15T13:41:13;100468.56;;;17.35;80.58
72438;BME280;60444;43.534;-5.674;2022-11-15T13:43:39;100460.78;;;17.30;79.82
72438;BME280;60444;43.534;-5.674;2022-11-15T13:46:18;100455.91;;;17.34;77.48
72438;BME280;60444;43.534;-5.674;2022-11-15T13:48:45;100484.97;;;17.46;77.04
72438;BME280;60444;43.534;-5.674;2022-11-15T13:51:18;100468.81;;;17.43;81.53
72438;BME280;60444;43.534;-5.674;2022-11-15T13:54:09;100486.63;;;17.48;76.37
72438;BME280;60444;43.534;-5.674;2022-11-15T13:56:33;100446.22;;;17.41;85.83
72438;BME280;60444;43.534;-5.674;2022-11-15T13:59:01;100462.03;;;17.48;85.54
72438;BME280;60444;43.534;-5.674;2022-11-15T14:01:33;100460.63;;;17.54;76.28
72438;BME280;60444;43.534;-5.674;2022-11-15T14:04:00;100464.97;;;17.56;75.88
72438;BME280;60444;43.534;-5.674;2022-11-15T14:06:28;100455.50;;;17.60;90.41
72438;BME280;60444;43.534;-5.674;2022-11-15T14:11:26;100465.81;;;17.68;91.73
72438;BME280;60444;43.534;-5.674;2022-11-15T14:16:34;100454.16;;;17.55;83.03
72438;BME280;60444;43.534;-5.674;2022-11-15T14:19:01;100465.81;;;17.68;91.38
72438;BME280;60444;43.534;-5.674;2022-11-15T14:21:27;100474.44;;;17.64;86.18
72438;BME280;60444;43.534;-5.674;2022-11-15T14:24:14;100454.66;;;17.60;83.82
72438;BME280;60444;43.534;-5.674;2022-11-15T14:26:39;100441.09;;;17.58;92.51
72438;BME280;60444;43.534;-5.674;2022-11-15T14:29:25;100458.38;;;17.59;83.36
72438;BME280;60444;43.534;-5.674;2022-11-15T14:32:13;100458.84;;;17.75;84.91
72438;BME280;60444;43.534;-5.674;2022-11-15T14:34:37;100466.06;;;17.76;79.10
72438;BME280;60444;43.534;-5.674;2022-11-15T14:37:03;100459.06;;;17.83;88.70
72438;BME280;60444;43.534;-5.674;2022-11-15T14:39:29;100461.34;;;17.78;79.05
72438;BME280;60444;43.534;-5.674;2022-11-15T14:41:54;100474.16;;;17.98;84.84
72438;BME280;60444;43.534;-5.674;2022-11-15T14:44:20;100460.19;;;17.81;79.73
72438;BME280;60444;43.534;-5.674;2022-11-15T14:46:46;100467.63;;;17.90;75.47
72438;BME280;60444;43.534;-5.674;2022-11-15T14:49:13;100469.25;;;17.92;81.17
72438;BME280;60444;43.534;-5.674;2022-11-15T14:51:40;100491.25;;;17.91;86.71